Time;durP1;ratioP1;P1;durP2;ratioP2;P2;SDS_P1;SDS_P2;PMS_P1;PMS_P2;Temp;Humidity;BMP_temperature;BMP_pressure;BME280_temperature;BME280_humidity;BME280_pressure;Samples;Min_cycle;Max_cycle;Signal;HPM_P1;HPM_P2
2021/11/24 00:01:15;;;;;;;;;32.25;29.00;;;;;5.95;90.06;102280.09;5055165;28;45451;-58
2021/11/24 00:03:40;;;;;;;;;35.75;34.25;;;;;5.93;89.62;102279.22;5051639;28;45609;-58
2021/11/24 00:06:05;;;;;;;;;37.33;33.00;;;;;5.91;89.25;102273.16;5050661;28;45329;-58
2021/11/24 00:08:31;;;;;;;;;35.25;31.50;;;;;5.91;89.06;102270.59;5050961;28;45350;-58
2021/11/24 00:10:56;;;;;;;;;36.25;31.50;;;;;5.89;90.87;102277.41;5052916;28;45377;-58
2021/11/24 00:13:22;;;;;;;;;36.00;31.50;;;;;5.86;90.41;102270.50;5051277;28;45500;-58
2021/11/24 00:15:47;;;;;;;;;35.50;29.00;;;;;5.85;90.25;102260.16;5057984;28;46486;-58
2021/11/24 00:18:12;;;;;;;;;35.25;28.50;;;;;5.84;93.42;102259.28;5050236;28;45586;-57
2021/11/24 00:20:39;;;;;;;;;33.00;25.25;;;;;5.82;90.35;102260.97;5053939;28;45621;-57
2021/11/24 00:23:04;;;;;;;;;35.75;29.50;;;;;5.79;90.12;102250.56;5053875;28;45485;-57
2021/11/24 00:25:30;;;;;;;;;28.50;24.75;;;;;5.80;90.52;102252.31;5056312;28;46134;-57
2021/11/24 00:27:56;;;;;;;;;41.50;34.75;;;;;5.80;90.17;102260.91;5054114;28;45395;-57
2021/11/24 00:30:21;;;;;;;;;39.00;31.00;;;;;5.80;90.50;102260.91;5053037;28;45627;-56
2021/11/24 00:32:47;;;;;;;;;37.00;27.00;;;;;5.78;90.27;102256.56;5052396;28;45503;-56
2021/11/24 00:35:12;;;;;;;;;43.00;26.00;;;;;5.78;89.36;102262.59;5052469;28;45415;-56
2021/11/24 00:37:37;;;;;;;;;33.00;24.50;;;;;5.76;89.75;102253.09;5055585;28;45346;-57
2021/11/24 00:40:04;;;;;;;;;35.25;23.75;;;;;5.76;89.76;102253.09;5053815;28;45783;-57
2021/11/24 00:42:30;;;;;;;;;44.25;31.00;;;;;5.75;90.47;102249.66;5053520;28;45480;-57
2021/11/24 00:44:55;;;;;;;;;30.75;24.75;;;;;5.74;89.79;102245.34;5055954;28;46707;-57
2021/11/24 00:47:20;;;;;;;;;35.00;24.25;;;;;5.73;90.74;102250.47;5050227;28;45221;-57
2021/11/24 00:49:46;;;;;;;;;38.50;24.75;;;;;5.71;90.12;102247.88;5047960;28;45207;-57
2021/11/24 00:52:12;;;;;;;;;38.00;26.50;;;;;5.72;91.38;102243.59;5050459;28;45180;-57
2021/11/24 00:54:37;;;;;;;;;28.50;20.25;;;;;5.69;90.74;102246.13;5059340;28;45295;-57
2021/11/24 00:57:04;;;;;;;;;27.25;22.50;;;;;5.69;91.17;102235.81;5059271;28;45428;-57
2021/11/24 00:59:30;;;;;;;;;44.00;26.25;;;;;5.68;91.52;102241.81;5058641;28;45292;-57
2021/11/24 01:01:55;;;;;;;;;47.25;31.50;;;;;5.66;90.68;102243.50;5059280;28;45468;-57
2021/11/24 01:04:21;;;;;;;;;34.50;28.50;;;;;5.67;90.74;102237.50;5059600;28;45356;-57
2021/11/24 01:06:46;;;;;;;;;31.25;24.00;;;;;5.65;90.36;102227.16;5059551;28;45232;-57
2021/11/24 01:09:11;;;;;;;;;34.25;26.00;;;;;5.65;90.43;102223.72;5059777;28;45319;-58
2021/11/24 01:11:37;;;;;;;;;36.75;27.50;;;;;5.66;90.86;102225.44;5059085;28;45464;-58
2021/11/24 01:14:03;;;;;;;;;32.25;26.00;;;;;5.60;91.63;102212.44;5059512;28;46790;-57
2021/11/24 01:16:28;;;;;;;;;38.25;28.50;;;;;5.63;90.70;102217.66;5061822;28;45221;-58
2021/11/24 01:18:54;;;;;;;;;27.50;24.00;;;;;5.64;90.88;102220.25;5059316;28;45399;-58
2021/11/24 01:21:19;;;;;;;;;31.25;26.50;;;;;5.63;91.40;102217.66;5059502;28;45185;-58
2021/11/24 01:23:46;;;;;;;;;30.50;26.00;;;;;5.62;90.35;102214.22;5072300;28;46238;-58
2021/11/24 01:26:12;;;;;;;;;38.25;29.00;;;;;5.61;90.67;102206.44;5059052;28;45284;-58
2021/11/24 01:28:37;;;;;;;;;25.25;21.75;;;;;5.62;91.20;102211.63;5059076;28;45358;-58
2021/11/24 01:31:03;;;;;;;;;23.50;22.00;;;;;5.62;90.66;102214.22;5059096;28;45229;-57
2021/11/24 01:33:28;;;;;;;;;31.50;25.00;;;;;5.60;90.85;102210.72;5057855;28;45549;-58
2021/11/24 01:35:53;;;;;;;;;24.00;23.67;;;;;5.61;91.27;102203.88;5058755;28;45298;-58
2021/11/24 01:38:19;;;;;;;;;33.50;28.50;;;;;5.61;91.11;102204.75;5058468;28;45432;-58
2021/11/24 01:40:44;;;;;;;;;32.75;27.50;;;;;5.58;91.71;102202.09;5059136;28;45510;-58
2021/11/24 01:43:10;;;;;;;;;36.25;27.50;;;;;5.58;91.14;102199.50;5058773;28;47054;-57
2021/11/24 01:45:36;;;;;;;;;34.25;25.75;;;;;5.56;91.80;102196.03;5059045;28;45420;-57
2021/11/24 01:48:02;;;;;;;;;34.00;29.25;;;;;5.55;90.86;102201.16;5058824;28;45489;-57
2021/11/24 01:50:28;;;;;;;;;34.75;27.00;;;;;5.53;91.44;102201.16;5058870;28;45566;-58
2021/11/24 01:52:54;;;;;;;;;44.50;33.25;;;;;5.52;90.68;102198.53;5059325;28;45456;-58
2021/11/24 01:55:20;;;;;;;;;20.00;15.75;;;;;5.50;91.10;102194.25;5062684;28;45350;-58
2021/11/24 01:57:48;;;;;;;;;38.50;27.50;;;;;5.48;90.92;102195.06;5062051;28;45165;-58
2021/11/24 02:00:18;;;;;;;;;36.50;29.75;;;;;5.44;92.77;102188.13;5062606;28;45629;-58
2021/11/24 02:02:43;;;;;;;;;39.25;27.75;;;;;5.45;91.86;102179.53;5062007;28;46356;-58
2021/11/24 02:05:09;;;;;;;;;41.25;30.00;;;;;5.42;91.38;102182.94;5062251;28;45336;-58
2021/11/24 02:07:35;;;;;;;;;37.25;29.25;;;;;5.40;91.81;102176.88;5062498;28;45234;-58
2021/11/24 02:10:00;;;;;;;;;33.50;27.50;;;;;5.40;91.76;102181.16;5062208;28;45254;-58
2021/11/24 02:12:26;;;;;;;;;36.50;27.75;;;;;5.39;91.39;102167.38;5077553;27;45926;-58
2021/11/24 02:14:51;;;;;;;;;38.00;30.25;;;;;5.39;91.35;102174.25;5065418;28;45244;-58
2021/11/24 02:17:17;;;;;;;;;39.50;27.00;;;;;5.39;91.20;102171.69;5061938;28;45412;-58
2021/11/24 02:19:43;;;;;;;;;29.75;22.50;;;;;5.38;90.93;102172.53;5062123;28;45486;-58
2021/11/24 02:22:09;;;;;;;;;39.50;26.75;;;;;5.35;91.93;102170.78;5061924;28;46615;-58
2021/11/24 02:24:36;;;;;;;;;41.50;28.00;;;;;5.35;91.14;102170.78;5062116;28;45317;-59
2021/11/24 02:27:05;;;;;;;;;29.50;22.50;;;;;5.35;91.31;102172.47;5060106;28;45450;-59
2021/11/24 02:29:31;;;;;;;;;31.75;25.75;;;;;5.33;92.25;102169.00;5061695;28;45379;-58
2021/11/24 02:31:58;;;;;;;;;36.75;30.25;;;;;5.31;92.52;102162.97;5061823;28;46461;-59
2021/11/24 02:34:25;;;;;;;;;41.25;30.00;;;;;5.25;91.00;102157.72;5059486;28;45714;-59
2021/11/24 02:36:51;;;;;;;;;34.50;29.25;;;;;5.27;91.98;102158.59;5062112;28;45394;-58
2021/11/24 02:39:16;;;;;;;;;36.00;28.75;;;;;5.25;91.94;102150.84;5061631;28;45465;-59
2021/11/24 02:41:42;;;;;;;;;37.25;24.75;;;;;5.26;92.15;102154.28;5061462;28;46094;-59
2021/11/24 02:44:26;;;;;;;;;40.25;31.25;;;;;5.24;90.49;102150.81;5061638;28;45328;-59
2021/11/24 02:47:06;;;;;;;;;33.50;26.25;;;;;5.24;91.39;102148.25;5061821;28;45385;-59
2021/11/24 02:49:40;;;;;;;;;37.00;33.50;;;;;5.21;91.64;102154.22;5061626;28;45833;-59
2021/11/24 02:52:06;;;;;;;;;39.50;34.00;;;;;5.19;92.03;102146.44;5061208;28;46497;-59
2021/11/24 02:54:32;;;;;;;;;49.25;28.75;;;;;5.16;91.35;102138.66;5061565;28;45256;-59
2021/11/24 02:56:59;;;;;;;;;45.25;31.00;;;;;5.16;92.08;102137.78;5061391;28;45299;-59
2021/11/24 02:59:25;;;;;;;;;37.25;26.00;;;;;5.16;91.50;102135.22;5061606;28;45461;-59
2021/11/24 03:01:51;;;;;;;;;38.50;27.25;;;;;5.14;92.14;102134.31;5061232;28;46349;-59
2021/11/24 03:04:16;;;;;;;;;37.50;27.75;;;;;5.12;92.35;102134.31;5061239;28;45243;-59
2021/11/24 03:06:42;;;;;;;;;23.00;23.00;;;;;5.11;91.88;102129.13;5061461;28;45393;-59
2021/11/24 03:09:07;;;;;;;;;32.00;24.25;;;;;5.08;92.96;102121.34;5061523;28;45296;-59
2021/11/24 03:11:32;;;;;;;;;34.00;26.67;;;;;5.08;92.42;102122.22;5059178;28;45486;-58
2021/11/24 03:13:58;;;;;;;;;31.00;25.25;;;;;5.09;92.19;102120.50;5059181;28;45373;-58
2021/11/24 03:16:23;;;;;;;;;33.00;27.00;;;;;5.07;92.28;102115.31;5060583;28;45366;-58
2021/11/24 03:18:49;;;;;;;;;35.25;28.50;;;;;5.06;94.20;102113.59;5058738;28;45394;-59
2021/11/24 03:21:14;;;;;;;;;36.75;30.25;;;;;5.04;93.04;102104.97;5058837;28;46493;-59
2021/11/24 03:23:40;;;;;;;;;41.25;29.25;;;;;5.03;93.48;102103.25;5059056;28;45345;-59
2021/11/24 03:26:05;;;;;;;;;39.25;31.00;;;;;5.02;93.18;102103.22;5059035;28;45385;-59
2021/11/24 03:28:30;;;;;;;;;30.50;27.00;;;;;4.98;93.86;102099.69;5058487;28;45598;-59
2021/11/24 03:30:56;;;;;;;;;25.25;21.50;;;;;4.96;94.32;102085.06;5058383;28;45379;-59
2021/11/24 03:33:21;;;;;;;;;38.25;28.25;;;;;4.96;93.99;102095.34;5058345;28;45528;-59
2021/11/24 03:35:47;;;;;;;;;38.75;31.25;;;;;4.95;93.72;102104.78;5057354;28;45664;-59
2021/11/24 03:38:12;;;;;;;;;34.75;27.25;;;;;4.95;93.57;102097.06;5058416;28;45374;-59
2021/11/24 03:40:38;;;;;;;;;36.00;27.25;;;;;4.95;93.07;102094.50;5058292;28;46701;-59
2021/11/24 03:43:03;;;;;;;;;27.00;26.00;;;;;4.94;92.30;102097.91;5060117;28;45409;-59
2021/11/24 03:45:33;;;;;;;;;23.00;15.25;;;;;4.89;92.23;102086.66;5060979;28;45457;-59
2021/11/24 03:47:59;;;;;;;;;33.25;28.50;;;;;4.92;92.20;102089.28;5059822;28;45244;-59
2021/11/24 03:50:26;;;;;;;;;42.00;29.25;;;;;4.90;93.33;102088.41;5059440;28;46843;-59
2021/11/24 03:52:51;;;;;;;;;35.25;27.75;;;;;4.88;94.42;102088.38;5059315;28;45875;-59
2021/11/24 03:55:17;;;;;;;;;35.00;28.00;;;;;4.88;93.02;102088.38;5060661;28;45263;-59
2021/11/24 03:57:43;;;;;;;;;37.25;27.00;;;;;4.89;93.21;102084.09;5060236;28;45227;-59
2021/11/24 04:00:15;;;;;;;;;26.50;26.00;;;;;4.89;92.54;102077.22;5060440;28;46482;-59
2021/11/24 04:02:41;;;;;;;;;42.50;30.50;;;;;4.88;92.58;102065.19;5060429;28;45712;-60
2021/11/24 04:05:08;;;;;;;;;39.25;29.00;;;;;4.89;92.56;102071.22;5060642;28;45512;-60
2021/11/24 04:07:34;;;;;;;;;35.00;25.75;;;;;4.86;92.68;102064.31;5060396;28;45362;-61
2021/11/24 04:10:00;;;;;;;;;31.00;26.50;;;;;4.86;93.17;102066.88;5060145;28;45500;-62
2021/11/24 04:12:26;;;;;;;;;31.75;23.50;;;;;4.86;93.20;102058.28;5060157;28;45337;-60
2021/11/24 04:14:51;;;;;;;;;30.50;26.75;;;;;4.85;92.96;102066.84;5061116;28;45303;-57
2021/11/24 04:17:16;;;;;;;;;40.25;31.00;;;;;4.84;92.68;102065.13;5059179;28;45313;-58
2021/11/24 04:19:42;;;;;;;;;31.75;25.25;;;;;4.82;93.69;102064.22;5060214;28;45428;-58
2021/11/24 04:22:07;;;;;;;;;28.75;22.50;;;;;4.81;93.07;102062.50;5060026;28;45246;-58
2021/11/24 04:24:34;;;;;;;;;30.25;26.50;;;;;4.81;93.11;102057.34;5060391;28;45317;-58
2021/11/24 04:27:00;;;;;;;;;41.25;33.25;;;;;4.78;93.14;102050.41;5059631;28;45584;-58
2021/11/24 04:29:25;;;;;;;;;33.75;27.50;;;;;4.78;93.00;102052.13;5059773;28;46302;-60
2021/11/24 04:31:50;;;;;;;;;31.50;28.25;;;;;4.77;93.05;102047.81;5059526;28;45244;-59
2021/11/24 04:34:16;;;;;;;;;35.25;26.50;;;;;4.77;93.00;102053.81;5049643;28;45439;-59
2021/11/24 04:36:42;;;;;;;;;31.50;25.75;;;;;4.75;93.91;102047.78;5052602;28;46212;-59
2021/11/24 04:39:07;;;;;;;;;33.50;27.25;;;;;4.75;93.31;102044.34;5050060;28;45350;-59
2021/11/24 04:41:32;;;;;;;;;33.00;27.25;;;;;4.73;92.69;102038.31;5058710;28;45307;-58
2021/11/24 04:43:58;;;;;;;;;38.00;29.75;;;;;4.73;93.07;102046.03;5060180;28;45156;-59
2021/11/24 04:46:23;;;;;;;;;36.75;29.25;;;;;4.71;93.41;102033.13;5058502;28;45360;-59
2021/11/24 04:48:49;;;;;;;;;45.75;33.50;;;;;4.70;93.73;102033.09;5059126;28;45398;-59
2021/11/24 04:51:15;;;;;;;;;29.25;27.00;;;;;4.70;93.43;102038.25;5058075;28;45393;-57
2021/11/24 04:53:40;;;;;;;;;32.00;25.25;;;;;4.69;93.73;102031.38;5058566;28;45446;-57
2021/11/24 04:56:06;;;;;;;;;35.75;27.75;;;;;4.70;93.05;102040.84;5056356;28;45425;-56
2021/11/24 04:58:32;;;;;;;;;36.75;26.75;;;;;4.67;93.16;102033.94;5057370;28;45434;-57
2021/11/24 05:00:59;;;;;;;;;34.50;23.50;;;;;4.70;92.92;102036.53;5057148;28;45985;-57
2021/11/24 05:03:25;;;;;;;;;34.00;27.25;;;;;4.71;93.45;102034.84;5057893;28;45618;-57
2021/11/24 05:05:51;;;;;;;;;33.50;25.00;;;;;4.72;93.39;102031.41;5058288;28;45260;-57
2021/11/24 05:08:16;;;;;;;;;33.33;29.00;;;;;4.68;93.56;102027.06;5059024;28;45525;-57
2021/11/24 05:10:41;;;;;;;;;34.50;26.75;;;;;4.65;92.39;102025.31;5074512;27;45365;-57
2021/11/24 05:13:07;;;;;;;;;29.75;25.25;;;;;4.59;92.97;102018.31;5074754;28;45304;-57
2021/11/24 05:15:35;;;;;;;;;34.25;29.00;;;;;4.57;92.57;102021.72;5061299;28;45645;-57
2021/11/24 05:18:12;;;;;;;;;34.00;28.75;;;;;4.58;93.20;102032.03;5059237;28;45484;-57
2021/11/24 05:20:39;;;;;;;;;34.50;24.50;;;;;4.57;94.23;102017.44;5059033;28;45264;-57
2021/11/24 05:23:05;;;;;;;;;46.25;34.25;;;;;4.56;92.71;102017.41;5059271;28;45428;-57
2021/11/24 05:25:32;;;;;;;;;41.00;33.00;;;;;4.58;93.22;102024.31;5059134;28;45560;-57
2021/11/24 05:27:58;;;;;;;;;22.25;13.25;;;;;4.56;92.92;102023.41;5061309;28;46318;-57
2021/11/24 05:30:23;;;;;;;;;33.25;22.00;;;;;4.54;93.49;102017.38;5062515;28;45564;-57
2021/11/24 05:32:49;;;;;;;;;35.25;21.00;;;;;4.51;92.09;102012.19;5062501;28;45390;-57
2021/11/24 05:35:20;;;;;;;;;29.25;19.75;;;;;4.48;92.90;102009.56;5061481;28;45889;-57
2021/11/24 05:37:46;;;;;;;;;37.25;27.00;;;;;4.47;93.77;102014.69;5062316;28;46315;-56
2021/11/24 05:40:11;;;;;;;;;33.75;28.25;;;;;4.46;93.12;102010.38;5062779;28;45244;-56
2021/11/24 05:42:38;;;;;;;;;32.75;25.00;;;;;4.44;93.51;102007.78;5062238;28;45369;-57
2021/11/24 05:45:16;;;;;;;;;40.50;28.25;;;;;4.43;93.33;102000.91;5062672;28;45168;-57
2021/11/24 05:50:26;;;;;;;;;37.75;25.25;;;;;4.46;94.10;102008.66;5062451;28;45508;-57
2021/11/24 05:52:53;;;;;;;;;39.00;25.50;;;;;4.45;93.84;102004.38;5062057;28;45401;-57
2021/11/24 05:55:18;;;;;;;;;31.00;20.00;;;;;4.44;93.37;102005.22;5060537;28;45267;-57
2021/11/24 05:57:44;;;;;;;;;33.50;26.25;;;;;4.39;94.07;101993.94;5061959;28;47670;-57
2021/11/24 06:00:10;;;;;;;;;26.25;18.75;;;;;4.45;94.03;102004.38;5059200;28;45219;-57
2021/11/24 06:02:36;;;;;;;;;29.75;22.25;;;;;4.45;94.91;101999.22;5061667;28;45240;-57
2021/11/24 06:05:02;;;;;;;;;25.00;22.50;;;;;4.44;93.70;101997.47;5062181;28;45258;-57
2021/11/24 06:07:27;;;;;;;;;32.00;21.00;;;;;4.44;93.28;101994.91;5062079;28;46420;-58
2021/11/24 06:09:53;;;;;;;;;38.25;28.75;;;;;4.43;94.13;101995.75;5062169;28;45263;-57
2021/11/24 06:12:18;;;;;;;;;32.75;25.50;;;;;4.40;94.46;101994.81;5061700;28;45484;-58
2021/11/24 06:14:46;;;;;;;;;42.25;25.50;;;;;4.38;92.86;101984.47;5064495;28;45342;-58
2021/11/24 06:17:12;;;;;;;;;35.25;28.75;;;;;4.40;94.53;101985.38;5060600;28;46382;-57
2021/11/24 06:19:37;;;;;;;;;29.25;23.50;;;;;4.38;93.36;101991.34;5061534;28;45402;-56
2021/11/24 06:22:03;;;;;;;;;34.00;25.75;;;;;4.33;93.89;101988.69;5061569;28;45520;-57
2021/11/24 06:24:28;;;;;;;;;33.00;22.75;;;;;4.29;95.11;101984.34;5061509;28;45250;-58
2021/11/24 06:26:54;;;;;;;;;34.25;27.25;;;;;4.27;94.16;101986.88;5060918;28;46292;-58
2021/11/24 06:29:19;;;;;;;;;33.00;24.25;;;;;4.24;93.71;101983.38;5061358;28;45244;-59
2021/11/24 06:31:44;;;;;;;;;44.25;32.75;;;;;4.21;93.50;101988.50;5061396;28;45290;-58
2021/11/24 06:34:10;;;;;;;;;30.25;23.50;;;;;4.19;94.17;101983.28;5061916;28;45226;-58
2021/11/24 06:36:35;;;;;;;;;31.50;23.00;;;;;4.16;93.63;101982.38;5061047;28;45301;-59
2021/11/24 06:39:00;;;;;;;;;22.25;16.50;;;;;4.16;93.46;101984.94;5060659;28;45282;-58
2021/11/24 06:41:26;;;;;;;;;33.25;25.25;;;;;4.15;93.88;101971.22;5061199;28;45246;-57
2021/11/24 06:43:51;;;;;;;;;32.00;23.75;;;;;4.14;94.37;101969.47;5061111;28;45316;-58
2021/11/24 06:46:17;;;;;;;;;32.50;22.25;;;;;4.13;94.63;101982.31;5060930;28;46379;-59
2021/11/24 06:48:42;;;;;;;;;34.00;22.25;;;;;4.12;94.66;101973.72;5061211;28;45214;-58
2021/11/24 06:51:08;;;;;;;;;34.00;29.00;;;;;4.14;93.95;101976.31;5065800;28;45160;-59
2021/11/24 06:53:34;;;;;;;;;37.25;23.25;;;;;4.16;93.36;101979.78;5068091;28;45523;-58
2021/11/24 06:55:59;;;;;;;;;26.75;21.50;;;;;4.15;92.76;101976.34;5060398;28;46132;-59
2021/11/24 06:58:24;;;;;;;;;28.50;22.00;;;;;4.11;93.13;101973.69;5061051;28;45349;-61
2021/11/24 07:00:50;;;;;;;;;27.25;23.75;;;;;4.10;93.40;101974.53;5061035;28;45441;-59
2021/11/24 07:03:15;;;;;;;;;32.00;23.25;;;;;4.09;93.55;101978.81;5060881;28;45467;-60
2021/11/24 07:05:41;;;;;;;;;18.75;16.25;;;;;4.09;93.64;101977.94;5060113;28;45357;-58
2021/11/24 07:08:06;;;;;;;;;34.50;24.25;;;;;4.08;93.34;101971.06;5060921;28;45321;-58
2021/11/24 07:10:32;;;;;;;;;29.75;22.25;;;;;4.04;94.34;101970.16;5059908;28;45548;-58
2021/11/24 07:12:58;;;;;;;;;25.75;21.00;;;;;4.02;94.31;101955.53;5060015;28;45430;-58
2021/11/24 07:15:23;;;;;;;;;28.50;24.75;;;;;4.01;93.35;101956.38;5062557;28;45523;-61
2021/11/24 07:17:49;;;;;;;;;40.50;25.25;;;;;4.01;94.08;101953.81;5060568;28;45168;-59
2021/11/24 07:20:16;;;;;;;;;24.00;21.00;;;;;4.01;93.81;101964.09;5060494;28;45397;-60
2021/11/24 07:22:41;;;;;;;;;23.25;22.00;;;;;4.00;93.01;101970.03;5055080;28;45237;-60
2021/11/24 07:25:08;;;;;;;;;25.00;17.50;;;;;3.98;94.24;101968.31;5048673;28;46181;-59
2021/11/24 07:27:33;;;;;;;;;31.25;22.50;;;;;3.96;94.23;101958.84;5055019;28;45454;-59
2021/11/24 07:29:59;;;;;;;;;22.00;13.00;;;;;4.00;94.15;101959.75;5057507;28;45296;-58
2021/11/24 07:32:24;;;;;;;;;32.50;21.75;;;;;4.05;93.71;101968.44;5060141;28;45383;-58
2021/11/24 07:34:50;;;;;;;;;32.00;23.00;;;;;4.08;93.41;101960.78;5060195;28;46534;-57
2021/11/24 07:37:15;;;;;;;;;34.50;21.00;;;;;4.13;93.65;101964.31;5060302;28;45317;-58
2021/11/24 07:39:40;;;;;;;;;28.00;17.75;;;;;4.13;92.97;101960.03;5060020;28;45787;-58
2021/11/24 07:42:06;;;;;;;;;26.00;19.25;;;;;4.12;92.64;101960.88;5059524;28;45453;-58
2021/11/24 07:44:32;;;;;;;;;15.75;14.50;;;;;4.15;93.06;101960.91;5059675;28;46411;-57
2021/11/24 07:46:57;;;;;;;;;32.50;22.50;;;;;4.14;92.55;101955.75;5059495;28;45366;-59
2021/11/24 07:49:23;;;;;;;;;26.25;15.75;;;;;4.19;94.06;101965.28;5059933;28;45349;-58
2021/11/24 07:51:48;;;;;;;;;29.25;21.50;;;;;4.21;93.95;101953.34;5060493;28;45301;-65
2021/11/24 07:54:14;;;;;;;;;15.50;13.50;;;;;4.24;92.83;101952.50;5059860;28;46328;-60
2021/11/24 07:56:39;;;;;;;;;27.00;20.00;;;;;4.26;92.92;101956.84;5059829;28;45231;-58
2021/11/24 07:59:05;;;;;;;;;31.50;19.25;;;;;4.23;92.61;101954.22;5060264;28;45256;-60
2021/11/24 08:01:30;;;;;;;;;24.50;21.25;;;;;4.25;92.86;101960.25;5060154;28;45180;-61
2021/11/24 08:03:55;;;;;;;;;28.50;26.75;;;;;4.30;92.51;101960.34;5059939;28;46358;-58
2021/11/24 08:06:21;;;;;;;;;42.75;35.50;;;;;4.37;92.92;101956.16;5060192;28;45203;-58
2021/11/24 08:08:46;;;;;;;;;22.25;14.00;;;;;4.39;92.70;101959.63;5060020;28;45262;-58
2021/11/24 08:11:11;;;;;;;;;26.75;18.25;;;;;4.42;92.61;101957.13;5059842;28;45294;-58
2021/11/24 08:13:37;;;;;;;;;34.25;22.25;;;;;4.43;93.04;101964.88;5059405;28;45385;-59
2021/11/24 08:16:02;;;;;;;;;23.00;13.00;;;;;4.47;92.26;101965.78;5061760;28;45308;-59
2021/11/24 08:18:28;;;;;;;;;21.25;17.00;;;;;4.53;92.58;101966.75;5059528;28;45226;-59
2021/11/24 08:20:53;;;;;;;;;30.75;22.75;;;;;4.57;91.91;101958.22;5059590;28;45559;-57
2021/11/24 08:23:18;;;;;;;;;26.25;22.25;;;;;4.57;91.96;101947.91;5059717;28;46538;-59
2021/11/24 08:25:44;;;;;;;;;30.00;15.50;;;;;4.54;92.07;101947.88;5059709;28;45340;-58
2021/11/24 08:28:09;;;;;;;;;9.75;8.75;;;;;4.48;92.37;101945.22;5056924;28;45328;-58
2021/11/24 08:30:35;;;;;;;;;25.75;16.25;;;;;4.50;91.45;101958.09;5059073;28;45549;-57
2021/11/24 08:33:00;;;;;;;;;24.50;18.75;;;;;4.47;92.45;101961.50;5058813;28;46840;-57
2021/11/24 08:35:26;;;;;;;;;22.50;18.00;;;;;4.45;91.80;101950.31;5059654;28;45414;-57
2021/11/24 08:37:51;;;;;;;;;18.75;12.75;;;;;4.49;92.02;101946.94;5059243;28;45440;-58
2021/11/24 08:40:17;;;;;;;;;31.25;23.75;;;;;4.50;92.09;101948.69;5057142;28;45414;-57
2021/11/24 08:42:42;;;;;;;;;24.00;16.00;;;;;4.53;91.95;101945.28;5058700;28;45414;-57
2021/11/24 08:45:10;;;;;;;;;16.25;16.25;;;;;4.52;91.57;101938.41;5059563;28;45386;-57
2021/11/24 08:47:37;;;;;;;;;24.00;19.75;;;;;4.51;91.58;101937.53;5059129;28;45488;-57
2021/11/24 08:50:04;;;;;;;;;31.00;19.50;;;;;4.55;92.13;101947.03;5057809;28;45579;-57
2021/11/24 08:52:30;;;;;;;;;26.25;19.50;;;;;4.63;91.44;101939.47;5058948;28;46874;-57
2021/11/24 08:54:55;;;;;;;;;20.75;19.75;;;;;4.63;92.02;101934.31;5058951;28;45441;-57
2021/11/24 08:57:22;;;;;;;;;23.75;19.75;;;;;4.65;92.17;101940.34;5054317;28;45896;-57
2021/11/24 08:59:48;;;;;;;;;25.00;19.00;;;;;4.69;91.85;101928.38;5059330;28;45450;-58
2021/11/24 09:02:14;;;;;;;;;24.00;19.00;;;;;4.78;91.84;101926.78;5057807;28;45970;-58
2021/11/24 09:04:39;;;;;;;;;24.00;17.25;;;;;4.81;92.04;101920.84;5058928;28;45250;-57
2021/11/24 09:07:05;;;;;;;;;41.00;22.75;;;;;4.86;91.64;101926.94;5059022;28;45211;-57
2021/11/24 09:09:30;;;;;;;;;33.00;23.00;;;;;4.83;91.47;101922.59;5059382;28;45282;-57
2021/11/24 09:11:55;;;;;;;;;30.50;25.50;;;;;4.85;91.36;101920.06;5058513;28;45481;-57
2021/11/24 09:14:22;;;;;;;;;20.00;14.50;;;;;4.87;91.69;101905.47;5058917;28;45281;-57
2021/11/24 09:16:47;;;;;;;;;31.75;22.75;;;;;4.95;91.54;101905.59;5060709;28;45542;-57
2021/11/24 09:19:13;;;;;;;;;20.00;13.00;;;;;5.02;91.09;101900.56;5059261;28;45211;-57
2021/11/24 09:21:38;;;;;;;;;26.75;19.75;;;;;5.08;90.47;101903.22;5058770;28;46268;-58
2021/11/24 09:24:10;;;;;;;;;23.50;21.25;;;;;5.08;90.82;101899.75;5058950;28;45420;-57
2021/11/24 09:26:44;;;;;;;;;12.50;9.75;;;;;5.03;89.79;101901.41;5058493;28;45504;-57
2021/11/24 09:29:11;;;;;;;;;24.75;18.25;;;;;4.92;90.34;101898.69;5058784;28;45484;-57
2021/11/24 09:31:38;;;;;;;;;26.75;18.00;;;;;4.84;90.74;101901.16;5058452;28;46963;-57
2021/11/24 09:34:03;;;;;;;;;27.00;23.25;;;;;4.81;91.31;101900.25;5058788;28;45272;-57
2021/11/24 09:36:29;;;;;;;;;30.75;21.75;;;;;4.79;90.44;101891.59;5058694;28;45357;-57
2021/11/24 09:38:55;;;;;;;;;31.00;18.75;;;;;4.85;90.79;101899.44;5058662;28;45383;-57
2021/11/24 09:41:26;;;;;;;;;20.75;13.75;;;;;4.88;90.66;101887.47;5058276;28;47385;-59
2021/11/24 09:43:53;;;;;;;;;23.00;13.75;;;;;4.95;91.13;101891.00;5058482;28;45456;-60
2021/11/24 09:46:19;;;;;;;;;23.00;23.00;;;;;5.05;90.89;101889.44;5058124;28;45474;-58
2021/11/24 09:48:45;;;;;;;;;38.75;23.75;;;;;5.12;90.85;101884.38;5058748;28;45329;-57
2021/11/24 09:51:12;;;;;;;;;21.25;18.00;;;;;5.16;90.11;101877.53;5058292;28;45345;-59
2021/11/24 09:53:40;;;;;;;;;26.50;20.25;;;;;5.17;90.58;101882.69;5058552;28;45299;-58
2021/11/24 09:56:07;;;;;;;;;28.50;20.50;;;;;5.22;89.76;101892.22;5057900;28;45283;-58
2021/11/24 09:58:33;;;;;;;;;22.25;16.75;;;;;5.23;89.41;101883.66;5054733;28;45281;-57
2021/11/24 10:00:59;;;;;;;;;18.25;16.00;;;;;5.24;89.98;101882.81;5058341;28;46574;-57
2021/11/24 10:03:26;;;;;;;;;31.75;22.75;;;;;5.27;90.20;101886.28;5058067;28;45354;-57
2021/11/24 10:05:52;;;;;;;;;28.50;23.50;;;;;5.30;89.87;101886.31;5058634;28;45306;-57
2021/11/24 10:08:18;;;;;;;;;24.75;19.00;;;;;5.33;90.19;101883.78;5058128;28;45504;-57
2021/11/24 10:10:43;;;;;;;;;28.50;21.25;;;;;5.40;89.55;101876.97;5057957;28;45354;-58
2021/11/24 10:13:10;;;;;;;;;31.50;24.25;;;;;5.43;89.38;101880.47;5058104;28;45247;-57
2021/11/24 10:15:36;;;;;;;;;28.75;21.50;;;;;5.44;89.10;101878.75;5062169;28;45289;-57
2021/11/24 10:18:18;;;;;;;;;30.00;22.50;;;;;5.41;89.61;101873.56;5061204;28;45296;-57
2021/11/24 10:20:50;;;;;;;;;36.50;25.50;;;;;5.52;89.41;101881.41;5053888;28;46243;-58
2021/11/24 10:23:31;;;;;;;;;27.00;22.50;;;;;5.55;89.68;101871.13;5061787;27;45868;-59
2021/11/24 10:26:33;;;;;;;;;25.50;19.00;;;;;5.63;88.94;101866.94;5061609;28;45237;-59
2021/11/24 10:29:06;;;;;;;;;32.25;20.75;;;;;5.74;89.04;101857.59;5047226;28;45429;-58
2021/11/24 10:31:43;;;;;;;;;29.25;19.50;;;;;5.85;88.82;101852.56;5060590;28;47410;-58
2021/11/24 10:34:25;;;;;;;;;37.50;27.50;;;;;6.01;89.10;101850.16;5060837;28;45781;-56
2021/11/24 10:37:01;;;;;;;;;31.25;21.75;;;;;6.10;88.34;101845.06;5060388;28;45292;-58
2021/11/24 10:39:29;;;;;;;;;29.00;24.75;;;;;6.21;87.29;101836.56;5055751;28;45490;-60
2021/11/24 10:42:22;;;;;;;;;21.00;14.00;;;;;6.24;87.10;101824.53;5061027;28;46398;-58
2021/11/24 10:44:51;;;;;;;;;21.25;16.75;;;;;6.29;87.00;101837.47;5060768;28;45322;-57
2021/11/24 10:47:17;;;;;;;;;24.50;20.75;;;;;6.30;86.76;101826.31;5060833;28;45255;-56
2021/11/24 10:49:45;;;;;;;;;34.00;24.50;;;;;6.28;87.38;101821.13;5061134;28;46512;-56
2021/11/24 10:52:25;;;;;;;;;35.00;23.75;;;;;6.33;85.92;101829.75;5060740;28;46913;-55
2021/11/24 10:55:25;;;;;;;;;18.75;16.00;;;;;6.39;86.75;101819.47;5060895;28;45304;-56
2021/11/24 10:58:15;;;;;;;;;35.25;22.50;;;;;6.49;86.79;101812.66;5037988;28;45487;-56
2021/11/24 11:00:46;;;;;;;;;35.25;23.75;;;;;6.47;85.79;101805.78;5060564;28;45219;-59
2021/11/24 11:03:13;;;;;;;;;25.00;17.00;;;;;6.47;86.06;101798.88;5059418;28;46158;-59
2021/11/24 11:05:41;;;;;;;;;29.75;24.00;;;;;6.53;86.30;101787.72;5060559;28;45724;-57
2021/11/24 11:08:13;;;;;;;;;27.00;23.25;;;;;6.62;86.23;101795.53;5060878;28;45537;-58
2021/11/24 11:10:41;;;;;;;;;34.25;18.75;;;;;6.68;86.24;101787.81;5060702;28;45412;-58
2021/11/24 11:13:13;;;;;;;;;26.50;23.75;;;;;6.79;85.52;101780.09;5060215;28;45334;-58
2021/11/24 11:15:46;;;;;;;;;25.75;21.00;;;;;6.79;85.19;101778.38;5058546;28;45902;-57
2021/11/24 11:18:29;;;;;;;;;32.00;23.25;;;;;6.80;85.25;101763.75;5059534;28;45417;-59